ěÝzenÝ letovÚho provozu ╚eskÚ republiky
Letiste: LKCV Aktualizace: 17.05.2022 23:00:31  UTC
 METAR LKCV 17.05. 23:00 ...
METAR LKCV 172300Z 11003KT CAVOK 09/09 Q1023 NOSIG RMK BLU BLU=
 TAF LKCV 17.05. 17:00 ...
TAF LKCV 171700Z 1718/1818 VRB02KT CAVOK      TEMPO 1802/1807 4000 MIFG BR      PROB40 TEMPO 1803/1806 0300 FG VV001      BECMG 1806/1808 09006KT=